Airfield :







YOU CAN JOIN US ON...

 
LOGIN :

Register | Disclaimer

   EN    FR    IT 

 









Legend :    VFR   Marginal VFR   IFR   Intensive IFR   Very Intensive IFR
Visi :
Ceiling :
>= 8 km
>= 3000ft
5 to 8 km
1000 to 3000 ft
1500m to 5 km
500 to 1000 ft
800 to 1500m
200 to 500 ft
< 800m
< 200 ft
Symbols :   Thunderstorms  Fog  Heavy snow  Heavy precipitations  Wind > 20 kt






- Airport Elevation : 76 ft
- IATA code : EGS


BIEG - Egilsstaðir

CURRENT METAR :
  • 190200Z 03004KT 9999 SCT036 BKN220 M04/M05 Q1016 R04/390194 RMK WIND GAGNHEIDI 10026KT

EXPIRED METARs :
  • 190100Z VRB03KT 9999 SCT036 BKN160 M03/M04 Q1016 R04/390194 RMK WIND GAGNHEIDI 10019G30KT
  • 190000Z 02008KT 9999 SCT036 BKN170 M03/M05 Q1016 R04/390138 RMK WIND GAGNHEIDI 11026KT

TAF TAF BIEG
Valid from the 19 at 00:00 until the 20 at 00:00 UTC


182221Z 1900/2000 34005KT 9999 SCT030 TX01/1915Z TNM03/1900Z
TEMPO 1903/2000 14015KT BKN020



MET'MAP, your aeronautical weather chart ! - Copyright ORBIFLY December 2007 - Disclaimer

ORBIFLY MET'MAP TEAM :

Programming & Development : Alexandra Zaïnal
Concept & Development : Baudouin d'Aumeries
Co-Development & Prog : Marc-Olivier Méhu
Technical & hardware support : Manuel Goepfert

Contact : metmap@orbifly.com




SOURCES & CREDITS :

   NOAA